• Join FlightAware (Why Join?)
  • Login
  • US Flag 
12:34PM EST


 

Airport Tracker/Info


-or-


 

Live Flight TrackerFlight Track Log ✈ ZK-ZQA ✈ 12-Aug-2012 ✈ YSSY / SYD - NZWN / WLG

Flight Track Log - Related Links

Times and Time Zones

All times are in EDT time to prevent confusion due to time zone crossing. See the ZK-ZQA flight status page for this flight to view local times or setup timezone preferences in your user account.

Time Position Orientation Groundspeed Altitude Reporting Facility
EDT Latitude Longitude Course Direction KTS MPH feet Rate Location/Type
07:46PM -33.9522 151.1776 168° South 138 159 400  Level Aus ATC (RADAR)
07:47PM -33.9580 151.1790 173° South 133 153 500 1,500 Climbing FlightAware
07:47PM -33.9710 151.1810 174° South 148 170 1,200 3,130 Climbing FlightAware
07:47PM -33.9756 151.1815 186° South 148 170 1,700 2,100 Climbing Aus ATC (RADAR)
07:48PM -34.0020 151.1780 184° South 178 205 2,600 1,781 Climbing FlightAware
07:48PM -34.0250 151.1760 167° South 197 227 3,600 1,662 Climbing FlightAware
07:49PM -34.0650 151.1870 165° South 252 290 4,400 2,229 Climbing FlightAware
07:49PM -34.1070 151.2010 164° South 269 310 6,200 2,700 Climbing FlightAware
07:50PM -34.1390 151.2120 164° South 281 323 7,100 2,604 Climbing FlightAware
07:50PM -34.1710 151.2230 164° South 281 323 8,500 4,615 Climbing FlightAware
07:50PM -34.1774 151.2252 149° Southeast 291 335 9,100 2,800 Climbing Aus ATC (RADAR)
07:51PM -34.2060 151.2460 111° Southeast 290 334 9,900 2,318 Climbing FlightAware
07:51PM -34.2130 151.2680 99° East 299 344 10,800 3,529 Climbing FlightAware
07:51PM -34.2222 151.3363 309° West 306 352 12,900 2,550 Climbing Aus ATC (RADAR)
07:52PM -34.2220 151.3360 102° East 314 361 12,500 2,323 Descending FlightAware
07:52PM -34.2319 151.3927 103° East 324 373 14,100 2,700 Climbing Aus ATC (RADAR)
07:52PM -34.2350 151.4090 101° East 334 384 14,300 2,172 Climbing FlightAware
07:53PM -34.2490 151.4930 102° East 354 407 16,200 3,134 Climbing FlightAware
07:53PM -34.2579 151.5447 102° East 354 407 17,800 3,000 Climbing Aus ATC (RADAR)
07:54PM -34.2630 151.5730 101° East 358 412 18,200 2,909 Climbing FlightAware
07:54PM -34.2690 151.6104 101° East 357 411 19,400 2,667 Climbing Aus ATC (RADAR)
07:54PM -34.2770 151.6610 101° East 367 422 20,200 2,613 Climbing FlightAware
07:55PM -34.2894 151.7356 103° East 370 426 22,100 2,700 Climbing Aus ATC (RADAR)
07:55PM -34.2910 151.7440 101° East 372 428 22,000 2,400 Descending FlightAware
07:56PM -34.3013 151.8074 101° East 373 429 23,500 2,348 Climbing Aus ATC (RADAR)
07:56PM -34.3070 151.8420 101° East 381 438 23,800 2,073 Climbing FlightAware
07:56PM -34.3204 151.9227 281° West 381 438 25,400 1,846 Climbing Aus ATC (RADAR)
07:56PM -34.3200 151.9200 110° East 389 448 25,000 1,714 Descending FlightAware
07:57PM -34.3427 151.9940 280° West 386 444 26,400 1,714 Climbing Aus ATC (RADAR)
07:57PM -34.3420 151.9890 120° Southeast 390 449 26,000 906 Descending FlightAware
07:58PM -34.3800 152.0690 121° Southeast 398 458 27,200 1,953 Climbing FlightAware
07:58PM -34.4280 152.1661 303° West 396 456 28,800 1,800 Climbing Aus ATC (RADAR)
07:59PM -34.4220 152.1550 120° Southeast 407 468 28,400 857 Descending FlightAware
07:59PM -34.4640 152.2420 120° Southeast 414 476 29,500 2,000 Climbing FlightAware
08:00PM -34.4950 152.3065 121° Southeast 408 470 30,600 1,350 Climbing Aus ATC (RADAR)
08:00PM -34.5030 152.3230 122° Southeast 420 483 30,400 1,059 Descending FlightAware
08:00PM -34.5289 152.3732 118° Southeast 414 476 31,200 1,050 Climbing Aus ATC (RADAR)
08:01PM -34.5420 152.4030 120° Southeast 431 496 31,100 1,393 Descending FlightAware
08:01PM -34.5852 152.4924 116° Southeast 421 484 32,500 1,467 Climbing Aus ATC (RADAR)
08:01PM -34.5870 152.4970 120° Southeast 432 497 32,200 1,029 Descending FlightAware
08:02PM -34.6204 152.5660 120° Southeast 424 488 33,100 1,200 Climbing Aus ATC (RADAR)
08:02PM -34.6300 152.5860 120° Southeast 441 507 33,000 508 Descending FlightAware
08:03PM -34.6730 152.6770 122° Southeast 450 518 33,600 1,463 Climbing FlightAware
08:03PM -34.6824 152.6952 120° Southeast 434 499 34,000 2,000 Climbing Aus ATC (RADAR)
08:03PM -34.7192 152.7725 68° East 442 509 34,800 682 Climbing Aus ATC (RADAR)
08:03PM -34.7190 152.7730 120° Southeast 451 519 34,500 818 Descending FlightAware
08:04PM -34.7560 152.8510 121° Southeast 447 514 35,400 1,291 Climbing FlightAware
08:05PM -34.8113 152.9651 303° West 444 511 36,200 600 Climbing Aus ATC (RADAR)
08:05PM -34.8070 152.9570 120° Southeast 458 527 35,900 737 Descending FlightAware
08:06PM -34.8721 153.0941 302° West 452 520 36,900 700 Climbing Aus ATC (RADAR)
08:06PM -34.8680 153.0860 120° Southeast 466 536 36,600 1,600 Descending FlightAware
08:06PM -34.8877 153.1282 119° Southeast 452 520 37,300 1,200 Climbing Aus ATC (RADAR)
08:07PM -34.9080 153.1720 120° Southeast 466 536 37,400 1,200 Climbing FlightAware
08:07PM -34.9249 153.2072 120° Southeast 449 517 38,000 900 Climbing Aus ATC (RADAR)
08:08PM -34.9888 153.3421 119° Southeast 447 514 38,300  Climbing Aus ATC (RADAR)
08:08PM -35.0060 153.3800 120° Southeast 463 533 38,000 -257 Descending FlightAware
08:09PM -35.0530 153.4800 120° Southeast 464 534 38,000 327 Level FlightAware
08:09PM -35.0788 153.5349 119° Southeast 449 517 38,300  Climbing Aus ATC (RADAR)
08:10PM -35.1040 153.5900 120° Southeast 464 534 38,000 -240 Descending FlightAware
08:10PM -35.1430 153.6740 120° Southeast 462 532 38,000 327 Level FlightAware
08:10PM -35.1736 153.7395 118° Southeast 446 513 38,300 600 Climbing Aus ATC (RADAR)
08:11PM -35.1887 153.7738 120° Southeast 444 511 38,300 -514 Level Aus ATC (RADAR)
08:11PM -35.2010 153.8000 119° Southeast 462 532 38,000  Descending FlightAware
08:11PM -35.2253 153.8531 119° Southeast 445 512 38,300 247 Climbing Aus ATC (RADAR)
08:12PM -35.2846 153.9858 123° Southeast 447 514 38,300  Level Aus ATC (RADAR)
08:13PM -35.3250 154.0621 118° Southeast 444 511 38,300  Level Aus ATC (RADAR)
08:14PM -35.3819 154.1923 119° Southeast 440 506 38,300  Level Aus ATC (RADAR)
08:14PM -35.3976 154.2265 120° Southeast 441 507 38,300  Level Aus ATC (RADAR)
08:15PM -35.4348 154.3046 120° Southeast 440 506 38,300  Level Aus ATC (RADAR)
08:16PM -35.5129 154.4732 118° Southeast 437 503 38,300  Level Aus ATC (RADAR)
08:16PM -35.5479 154.5528 117° Southeast 437 503 38,300  Level Aus ATC (RADAR)
08:17PM -35.5947 154.6682 119° Southeast 438 504 38,300  Level Aus ATC (RADAR)
08:18PM -35.6300 154.7473 123° Southeast 437 503 38,300  Level Aus ATC (RADAR)
08:19PM -35.7045 154.8880 118° Southeast 439 505 38,300  Level Aus ATC (RADAR)
08:20PM -35.7403 154.9701 120° Southeast 449 517 38,300  Level Aus ATC (RADAR)
08:20PM -35.7556 155.0032 116° Southeast 444 511 38,300 Level Aus ATC (RADAR)
08:24PM -36.0191 155.6671 116° Southeast 38,000 Descending Aus ATC (Calculated)
08:26PM -36.1059 155.8887 116° Southeast 38,000 10 Level Aus ATC (Calculated)
08:27PM -36.1889 156.1022 115° Southeast 38,000 10 Level Aus ATC (Calculated)
08:29PM -36.2696 156.3111 115° Southeast 38,000 10 Level Aus ATC (Calculated)
08:29PM -36.2696 156.3111 115° Southeast 38,000 10 Level Aus ATC (Calculated)
08:31PM -36.3573 156.5441 115° Southeast  Level FlightAware Approximate
08:32PM -36.4249 156.7171 115° Southeast 38,000  Level Aus ATC (Calculated)
08:34PM -36.4972 156.9080 115° Southeast 38,000 11 Level Aus ATC (Calculated)
08:36PM -36.6176 157.2345 115° Southeast  Level FlightAware Approximate
08:37PM -36.6790 157.4024 115° Southeast  Level FlightAware Approximate
08:38PM -36.7401 157.5705 115° Southeast  Level FlightAware Approximate
08:39PM -36.8010 157.7389 114° Southeast  Level FlightAware Approximate
08:40PM -36.8617 157.9076 114° Southeast  Level FlightAware Approximate
08:41PM -36.9221 158.0765 114° Southeast  Level FlightAware Approximate
08:42PM -36.9823 158.2457 114° Southeast  Level FlightAware Approximate
08:43PM -37.0423 158.4151 114° Southeast  Level FlightAware Approximate
08:44PM -37.1020 158.5849 114° Southeast  Level FlightAware Approximate
08:45PM -37.1615 158.7549 114° Southeast  Level FlightAware Approximate
08:46PM -37.2207 158.9251 114° Southeast  Level FlightAware Approximate
08:47PM -37.2797 159.0957 114° Southeast  Level FlightAware Approximate
08:48PM -37.3384 159.2665 114° Southeast  Level FlightAware Approximate
08:49PM -37.3969 159.4375 113° Southeast  Level FlightAware Approximate
08:50PM -37.4552 159.6089 113° Southeast  Level FlightAware Approximate
08:51PM -37.5132 159.7805 113° Southeast  Level FlightAware Approximate
08:52PM -37.5709 159.9523 113° Southeast  Level FlightAware Approximate
08:53PM -37.6284 160.1244 113° Southeast  Level FlightAware Approximate
08:54PM -37.6857 160.2968 113° Southeast  Level FlightAware Approximate
08:55PM -37.7427 160.4695 113° Southeast  Level FlightAware Approximate
08:56PM -37.7994 160.6424 113° Southeast  Level FlightAware Approximate
08:57PM -37.8559 160.8156 113° Southeast  Level FlightAware Approximate
08:58PM -37.9122 160.9891 112° Southeast  Level FlightAware Approximate
08:59PM -37.8365 160.6759 113° Southeast 38,000  Level Aus ATC (Calculated)
09:00PM -37.8925 160.8495 112° Southeast  Level FlightAware Approximate
09:01PM -37.9483 161.0232 112° Southeast  Level FlightAware Approximate
09:02PM -38.0038 161.1973 112° Southeast  Level FlightAware Approximate
09:03PM -38.0591 161.3716 112° Southeast  Level FlightAware Approximate
09:04PM -38.1141 161.5461 112° Southeast  Level FlightAware Approximate
09:05PM -38.1688 161.7210 112° Southeast  Level FlightAware Approximate
09:06PM -38.2233 161.8961 112° Southeast  Level FlightAware Approximate
09:07PM -38.2776 162.0714 112° Southeast  Level FlightAware Approximate
09:08PM -38.3316 162.2471 112° Southeast  Level FlightAware Approximate
09:09PM -38.3301 162.1958 112° Southeast 38,000  Level Aus ATC (Calculated)
09:10PM -38.3836 162.3718 111° Southeast  Level FlightAware Approximate
09:11PM -38.4369 162.5480 111° Southeast  Level FlightAware Approximate
09:12PM -38.4899 162.7245 111° Southeast  Level FlightAware Approximate
09:13PM -38.5426 162.9012 111° Southeast  Level FlightAware Approximate
09:14PM -38.6026 163.0741 111° Southeast  Level FlightAware Approximate
09:15PM -38.6546 163.2514 111° Southeast  Level FlightAware Approximate
09:16PM -38.7063 163.4291 111° Southeast  Level FlightAware Approximate
09:17PM -38.7578 163.6069 111° Southeast  Level FlightAware Approximate
09:18PM -38.8090 163.7851 111° Southeast  Level FlightAware Approximate
09:19PM -38.8599 163.9635 110° East  Level FlightAware Approximate
09:20PM -38.9105 164.1422 110° East  Level FlightAware Approximate
09:21PM -38.9609 164.3211 110° East  Level FlightAware Approximate
09:22PM -39.0110 164.5002 110° East  Level FlightAware Approximate
09:23PM -39.0609 164.6797 110° East  Level FlightAware Approximate
09:24PM -39.1104 164.8593 110° East  Level FlightAware Approximate
09:25PM -39.1597 165.0392 110° East  Level FlightAware Approximate
09:26PM -39.2087 165.2194 110° East  Level FlightAware Approximate
09:27PM -39.2574 165.3998 110° East  Level FlightAware Approximate
09:28PM -39.3059 165.5805 109° East  Level FlightAware Approximate
09:29PM -39.3540 165.7614 109° East  Level FlightAware Approximate
09:30PM -39.4019 165.9426 109° East  Level FlightAware Approximate
09:31PM -39.4495 166.1240 109° East  Level FlightAware Approximate
09:32PM -39.4969 166.3057 109° East  Level FlightAware Approximate
09:33PM -39.5439 166.4876 109° East  Level FlightAware Approximate
09:34PM -39.5906 166.6698 109° East  Level FlightAware Approximate
09:35PM -39.6371 166.8522 109° East  Level FlightAware Approximate
09:36PM -39.6833 167.0348 109° East  Level FlightAware Approximate
09:37PM -39.7292 167.2177 109° East  Level FlightAware Approximate
09:38PM -39.7748 167.4009 109° East  Level FlightAware Approximate
09:39PM -39.8201 167.5843 108° East  Level FlightAware Approximate
09:40PM -39.8652 167.7679 108° East  Level FlightAware Approximate
09:41PM -39.9099 167.9517 108° East  Level FlightAware Approximate
09:42PM -39.9543 168.1358 108° East  Level FlightAware Approximate
09:43PM -39.9985 168.3202 108° East  Level FlightAware Approximate
09:44PM -40.0424 168.5048 108° East  Level FlightAware Approximate
09:45PM -40.0860 168.6896 108° East  Level FlightAware Approximate
09:46PM -40.1292 168.8746 108° East  Level FlightAware Approximate
09:47PM -40.1722 169.0599 108° East  Level FlightAware Approximate
09:48PM -40.2149 169.2454 108° East  Level FlightAware Approximate
09:49PM -40.2573 169.4312 108° East  Level FlightAware Approximate
09:50PM -40.2994 169.6172 108° East  Level FlightAware Approximate
09:51PM -40.3412 169.8034 108° East  Level FlightAware Approximate
09:52PM -40.3827 169.9899 108° East  Level FlightAware Approximate
09:53PM -40.4239 170.1765 108° East  Level FlightAware Approximate
09:54PM -40.4648 170.3634 108° East  Level FlightAware Approximate
09:55PM -40.5054 170.5506 109° East  Level FlightAware Approximate
09:56PM -40.5462 170.7377 109° East  Level FlightAware Approximate
09:57PM -40.5858 170.9254 111° Southeast  Level Estimated
09:58PM -41.2114 174.1080 283° West  Level FlightAware Approximate
09:59PM -41.2437 174.3000 282° West  Level Estimated
10:00PM -41.2817 174.5008 282° West  Level FlightAware Approximate
10:01PM -41.3107 174.6940 282° West  Level Estimated
10:02PM -41.3272 174.8053 282° West  Level FlightAware Approximate
10:03PM -41.4091 174.6410 285° West  Level Estimated
10:04PM -41.3272 174.8053 282° West  Level FlightAware Approximate
10:05PM -40.7340 171.4520 108° East 486 559 39,000  Level FlightAware
10:06PM -40.7720 171.6090 108° East 486 559 39,000  Level FlightAware
10:07PM -40.8020 171.7320 108° East 488 562 39,000  Level FlightAware
10:07PM -40.8300 171.8480 108° East 489 563 39,000  Level FlightAware
10:08PM -40.8580 171.9620 108° East 490 564 39,000  Level FlightAware
10:09PM -40.8880 172.0840 108° East 491 565 39,000  Level FlightAware
10:09PM -40.9160 172.2000 108° East 492 566 39,000  Level FlightAware
10:10PM -40.9480 172.3330 107° East 491 565 39,000  Level FlightAware
10:11PM -40.9750 172.4480 107° East 490 564 39,000 -1,248 Level FlightAware
10:12PM -41.0300 172.6810 107° East 474 545 36,400 -1,829 Descending FlightAware
10:14PM -41.1080 173.0130 106° East 421 484 32,600 -1,745 Descending FlightAware
10:15PM -41.1300 173.1120 107° East 399 459 31,600 -1,906 Descending FlightAware
10:16PM -41.1530 173.2130 107° East 394 453 29,900 -2,541 Descending FlightAware
10:16PM -41.1740 173.3070 108° East 395 455 28,000 -2,824 Descending FlightAware
10:17PM -41.1990 173.4110 107° East 400 460 25,900 -2,541 Descending FlightAware
10:18PM -41.2200 173.5040 107° East 393 452 24,400 -2,475 Descending FlightAware
10:19PM -41.2410 173.5970 107° East 381 438 22,600 -2,753 Descending FlightAware
10:19PM -41.2630 173.6950 107° East 367 422 20,500 -2,824 Descending FlightAware
10:20PM -41.2830 173.7830 107° East 362 417 18,600 -2,612 Descending FlightAware
10:21PM -41.3040 173.8770 102° East 352 405 16,800 -2,250 Descending FlightAware
10:21PM -41.3160 173.9500 74° East 349 402 15,600 -2,100 Descending FlightAware
10:22PM -41.2960 174.0420 70° East 342 394 14,000 -2,000 Descending FlightAware
10:23PM -41.2730 174.1280 70° East 339 390 12,600 -1,976 Descending FlightAware
10:23PM -41.2510 174.2070 70° East 336 387 11,200 -1,553 Descending FlightAware
10:24PM -41.2270 174.2930 70° East 310 357 10,400 -1,029 Descending FlightAware
10:25PM -41.2150 174.3370 70° East 299 344 10,000 -1,309 Descending FlightAware
10:25PM -41.2010 174.3880 70° East 291 335 9,200 -1,527 Descending FlightAware
10:26PM -41.1900 174.4290 69° East 285 328 8,600 -1,418 Descending FlightAware
10:26PM -41.1760 174.4780 70° East 284 327 7,900 -1,418 Descending FlightAware
10:26PM -41.1650 174.5180 68° East 284 327 7,300 -1,500 Descending FlightAware
10:27PM -41.1570 174.5440 70° East 283 326 6,900 -1,467 Descending FlightAware
10:27PM -41.1440 174.5920 69° East 279 321 6,200 -1,309 Descending FlightAware
10:28PM -41.1330 174.6300 70° East 266 306 5,700 -873 Descending FlightAware
10:28PM -41.1220 174.6710 80° East 241 277 5,400 -545 Descending FlightAware
10:29PM -41.1170 174.7100 94° East 221 254 5,200 -545 Descending FlightAware
10:29PM -41.1190 174.7450 93° East 201 231 4,900 -600 Descending FlightAware
10:29PM -41.1200 174.7680 101° East 198 228 4,700 -800 Descending FlightAware
10:30PM -41.1250 174.8010 132° Southeast 192 221 4,300 -1,029 Descending FlightAware
10:30PM -41.1310 174.8100 159° South 198 228 4,100 -1,200 Descending FlightAware
10:30PM -41.1430 174.8160 175° South 185 213 3,800 -1,029 Descending FlightAware
10:31PM -41.1600 174.8180 183° South 179 206 3,500 -900 Descending FlightAware
10:31PM -41.1940 174.8160 182° South 175 201 2,900 -923 Descending FlightAware
10:32PM -41.2150 174.8150 184° South 176 203 2,500 -982 Descending FlightAware
10:32PM -41.2390 174.8130 182° South 163 188 2,000 -982 Descending FlightAware
10:33PM -41.2570 174.8120 185° South 149 171 1,600 -764 Descending FlightAware
10:33PM -41.2750 174.8100 182° South 129 148 1,300 -600 Descending FlightAware
10:34PM -41.2970 174.8090 182° South 115 132 900 -686 Descending FlightAware
10:34PM -41.3160 174.8080 182° South 127 146 500 -800 Descending FlightAware